Aviation Digital Data Service (ADDS)

Output produced by METARs form (1548 UTC 23 January 2019)
found at http://www.aviationweather.gov/metar/data/
 
Forecast for: KSNA (COSTA MESA , CA, US)
Text: KSNA 231120Z 2312/2412 06005KT P6SM SKC
Forecast period: 1200 to 2100 UTC 23 January 2019
Forecast type: FROM: standard forecast or significant change
Winds: from the ENE (60 degrees) at 6 MPH (5 knots; 2.6 m/s)
Visibility: 6 or more miles 10+ km)
Clouds: clear skies
Weather: no significant weather forecast for this period
Text: FM232100 24007KT P6SM SKC
Forecast period: 2100 UTC 23 January 2019 to 0200 UTC 24 January 2019
Forecast type: FROM: standard forecast or significant change
Winds: from the WSW (240 degrees) at 8 MPH (7 knots; 3.6 m/s)
Visibility: 6 or more miles 10+ km)
Clouds: clear skies
Weather: no significant weather forecast for this period
Text: FM240200 VRB04KT P6SM SKC
Forecast period: 0200 to 1200 UTC 24 January 2019
Forecast type: FROM: standard forecast or significant change
Winds: variable direction winds at 5 MPH (4 knots; 2.1 m/s)
Visibility: 6 or more miles 10+ km)
Clouds: clear skies
Weather: no significant weather forecast for this period